Time;durP1;ratioP1;P1;durP2;ratioP2;P2;SDS_P1;SDS_P2;PMS_P1;PMS_P2;Temp;Humidity;BMP_temperature;BMP_pressure;BME280_temperature;BME280_humidity;BME280_pressure;Samples;Min_cycle;Max_cycle;Signal;HPM_P1;HPM_P2
2023/02/10 00:01:26;;;;;;;50.80;31.40;;;;;;;-4.02;62.44;101567.77;104416;1269;587397;-74
2023/02/10 00:03:55;;;;;;;61.60;33.30;;;;;;;-4.06;62.57;101570.98;105107;1266;61834;-70
2023/02/10 00:06:24;;;;;;;54.80;31.30;;;;;;;-4.10;62.96;101570.63;105141;1259;61069;-72
2023/02/10 00:08:54;;;;;;;54.50;31.00;;;;;;;-4.16;63.07;101567.57;105417;1259;73069;-72
2023/02/10 00:11:56;;;;;;;56.90;33.80;;;;;;;-4.20;63.08;101563.99;105479;1265;68418;-69
2023/02/10 00:14:12;;;;;;;47.40;28.70;;;;;;;-4.23;63.09;101560.37;105539;1263;72627;-72
2023/02/10 00:16:41;;;;;;;56.80;33.10;;;;;;;-4.26;63.08;101557.98;104755;1264;1003651;-72
2023/02/10 00:19:10;;;;;;;43.10;27.80;;;;;;;-4.28;63.13;101553.20;105397;1263;62086;-69
2023/02/10 00:21:39;;;;;;;47.80;28.40;;;;;;;-4.29;62.95;101546.65;105502;1259;72727;-73
2023/02/10 00:24:07;;;;;;;45.20;27.30;;;;;;;-4.31;62.83;101542.35;105003;1259;69810;-71
2023/02/10 00:26:35;;;;;;;44.60;27.00;;;;;;;-4.33;62.70;101539.01;105583;1259;72087;-72
2023/02/10 00:29:03;;;;;;;40.50;26.20;;;;;;;-4.36;62.72;101537.69;105491;1264;60760;-70
2023/02/10 00:31:32;;;;;;;47.30;27.70;;;;;;;-4.40;62.90;101535.69;105554;1259;60815;-71
2023/02/10 00:34:01;;;;;;;40.10;24.40;;;;;;;-4.43;62.81;101532.70;105517;1259;71713;-71
2023/02/10 00:36:30;;;;;;;38.40;23.70;;;;;;;-4.45;62.50;101528.44;105548;1259;68161;-69
2023/02/10 00:38:59;;;;;;;48.70;24.10;;;;;;;-4.44;62.19;101528.08;104979;1259;71744;-70
2023/02/10 00:41:27;;;;;;;36.10;21.60;;;;;;;-4.45;62.26;101527.60;105110;1265;59667;-73
2023/02/10 00:43:55;;;;;;;38.50;24.80;;;;;;;-4.45;62.24;101526.95;105475;1259;61663;-70
2023/02/10 00:46:23;;;;;;;44.80;27.00;;;;;;;-4.47;62.33;101521.96;105431;1259;71855;-75
2023/02/10 00:48:52;;;;;;;53.00;27.90;;;;;;;-4.49;62.60;101521.91;105368;1259;67579;-72
2023/02/10 00:51:20;;;;;;;41.30;26.20;;;;;;;-4.53;62.68;101523.63;104881;1259;1003819;-72
2023/02/10 00:53:52;;;;;;;37.10;24.70;;;;;;;-4.57;62.62;101523.94;105460;1262;60142;-74
2023/02/10 00:56:20;;;;;;;46.40;27.00;;;;;;;-4.62;63.10;101516.92;104788;1264;1003049;-74
2023/02/10 00:58:50;;;;;;;43.90;25.40;;;;;;;-4.68;63.43;101514.22;105462;1265;74882;-72
2023/02/10 01:01:18;;;;;;;52.60;28.40;;;;;;;-4.72;63.32;101512.91;105532;1263;68776;-71
2023/02/10 01:03:46;;;;;;;46.10;25.30;;;;;;;-4.75;63.46;101501.55;105324;1259;72252;-73
2023/02/10 01:06:15;;;;;;;51.70;29.10;;;;;;;-4.78;63.42;101501.77;105544;1265;60965;-71
2023/02/10 01:08:43;;;;;;;43.70;25.50;;;;;;;-4.80;63.58;101502.30;105580;1263;59639;-73
2023/02/10 01:11:13;;;;;;;43.30;25.80;;;;;;;-4.83;63.42;101497.92;105570;1259;73300;-68
2023/02/10 01:13:41;;;;;;;47.40;26.60;;;;;;;-4.85;63.46;101495.98;105130;1264;69641;-71
2023/02/10 01:16:13;;;;;;;47.30;27.00;;;;;;;-4.87;63.52;101498.89;105479;1259;71290;-73
2023/02/10 01:18:41;;;;;;;44.00;24.60;;;;;;;-4.89;63.51;101494.88;105489;1260;59753;-70
2023/02/10 01:21:13;;;;;;;42.80;26.40;;;;;;;-4.92;63.33;101491.90;105312;1264;59754;-73
2023/02/10 01:23:41;;;;;;;42.80;27.30;;;;;;;-4.95;63.53;101489.48;105514;1263;72694;-78
2023/02/10 01:26:11;;;;;;;44.60;25.80;;;;;;;-4.96;63.15;101489.07;105517;1259;69521;-78
2023/02/10 01:28:40;;;;;;;46.20;26.90;;;;;;;-4.97;63.29;101488.62;105485;1260;72133;-77
2023/02/10 01:31:17;;;;;;;37.20;22.60;;;;;;;-4.99;63.51;101485.96;105539;1261;61314;-80
2023/02/10 01:33:45;;;;;;;41.30;24.50;;;;;;;-5.01;63.63;101485.75;105475;1260;60960;-81
2023/02/10 01:36:15;;;;;;;42.20;24.70;;;;;;;-5.03;63.29;101484.95;105424;1259;74184;-74
2023/02/10 01:38:45;;;;;;;46.80;26.00;;;;;;;-5.03;63.44;101480.81;105632;1259;67361;-70
2023/02/10 01:41:15;;;;;;;42.70;25.60;;;;;;;-5.01;63.17;101478.55;105576;1259;72569;-70
2023/02/10 01:44:18;;;;;;;43.10;24.30;;;;;;;-4.95;63.10;101477.45;105822;1256;61796;-70
2023/02/10 01:46:47;;;;;;;43.70;24.40;;;;;;;-4.88;63.14;101476.04;105831;1256;60865;-71
2023/02/10 01:49:17;;;;;;;41.80;25.00;;;;;;;-4.82;62.84;101473.74;105788;1261;72978;-70
2023/02/10 01:51:50;;;;;;;37.70;22.80;;;;;;;-4.72;63.08;101470.39;105871;1257;67383;-72
2023/02/10 01:54:22;;;;;;;41.30;23.20;;;;;;;-4.60;62.50;101468.52;105769;1256;72945;-72
2023/02/10 01:56:50;;;;;;;41.10;25.20;;;;;;;-4.50;62.18;101464.79;105635;1256;61127;-75
2023/02/10 01:59:19;;;;;;;40.90;24.20;;;;;;;-4.46;61.95;101466.57;105498;1256;60396;-73
2023/02/10 02:01:47;;;;;;;37.50;24.00;;;;;;;-4.37;61.78;101463.36;105828;1256;71498;-79
2023/02/10 02:04:15;;;;;;;42.80;23.60;;;;;;;-4.23;61.45;101466.54;105528;1261;67534;-74
2023/02/10 02:06:43;;;;;;;36.20;23.20;;;;;;;-4.15;60.89;101464.89;105970;1260;73413;-71
2023/02/10 02:09:11;;;;;;;38.40;25.70;;;;;;;-4.15;60.37;101462.55;105677;1256;59689;-71
2023/02/10 02:11:52;;;;;;;41.50;25.70;;;;;;;-4.17;59.99;101456.46;105788;1256;59538;-72
2023/02/10 02:14:43;;;;;;;45.90;23.90;;;;;;;-4.20;59.66;101456.50;105682;1256;73932;-70
2023/02/10 02:17:42;;;;;;;43.40;24.90;;;;;;;-4.25;59.47;101451.80;105920;1260;66358;-72
2023/02/10 02:20:41;;;;;;;39.40;23.20;;;;;;;-4.31;59.69;101448.56;105172;1257;1003324;-74
2023/02/10 02:23:10;;;;;;;35.10;21.50;;;;;;;-4.35;59.46;101450.27;105886;1256;60797;-73
2023/02/10 02:25:55;;;;;;;38.80;21.30;;;;;;;-4.40;59.53;101451.10;105788;1256;62273;-75
2023/02/10 02:28:27;;;;;;;32.00;20.60;;;;;;;-4.46;59.69;101452.90;105789;1260;74856;-75
2023/02/10 02:31:08;;;;;;;;;;;;;;;-4.50;59.92;101463.36;105801;1256;67689;-75
2023/02/10 02:33:40;;;;;;;35.70;20.70;;;;;;;-4.54;59.91;101465.44;105870;1260;74546;-85
2023/02/10 02:36:34;;;;;;;35.30;20.90;;;;;;;-4.58;59.99;101465.02;105867;1256;59853;-68
2023/02/10 02:39:03;;;;;;;38.10;22.40;;;;;;;-4.63;60.00;101463.79;105695;1256;59674;-72
2023/02/10 02:41:34;;;;;;;36.90;22.60;;;;;;;-4.65;60.01;101459.23;105516;1257;72503;-70
2023/02/10 02:44:05;;;;;;;30.10;21.20;;;;;;;-4.68;60.21;101451.58;105822;1262;68490;-70
2023/02/10 02:47:01;;;;;;;43.10;21.70;;;;;;;-4.71;60.25;101452.84;105310;1260;73593;-68
2023/02/10 02:49:34;;;;;;;33.80;21.10;;;;;;;-4.74;60.20;101448.13;105371;1256;59733;-70
2023/02/10 02:52:11;;;;;;;40.70;22.90;;;;;;;-4.75;60.10;101449.98;105815;1262;59647;-68
2023/02/10 02:54:48;;;;;;;38.80;21.20;;;;;;;-4.79;60.20;101447.95;105240;1260;74334;-70
2023/02/10 02:57:44;;;;;;;39.60;23.00;;;;;;;-4.81;59.99;101448.48;105672;1254;68129;-68
2023/02/10 03:00:17;;;;;;;38.10;21.60;;;;;;;-4.83;60.16;101441.23;105920;1260;72508;-70
2023/02/10 03:02:46;;;;;;;37.20;23.40;;;;;;;-4.83;60.16;101443.17;105569;1261;59701;-72
2023/02/10 03:05:23;;;;;;;42.50;21.30;;;;;;;-4.82;60.56;101439.29;105535;1256;59635;-71
2023/02/10 03:07:52;;;;;;;37.20;22.20;;;;;;;-4.81;60.43;101437.66;105659;1260;73934;-72
2023/02/10 03:10:21;;;;;;;36.10;22.80;;;;;;;-4.80;60.37;101435.82;105659;1261;69336;-70
2023/02/10 03:12:50;;;;;;;33.00;20.70;;;;;;;-4.78;60.27;101432.16;105519;1260;72907;-70
2023/02/10 03:15:18;;;;;;;35.80;23.40;;;;;;;-4.77;60.36;101434.35;105640;1255;60003;-69
2023/02/10 03:17:46;;;;;;;35.20;20.70;;;;;;;-4.76;60.35;101432.20;105813;1258;60638;-71
2023/02/10 03:20:14;;;;;;;34.50;20.40;;;;;;;-4.75;60.50;101432.52;105706;1257;73487;-72
2023/02/10 03:22:43;;;;;;;30.90;20.60;;;;;;;-4.73;60.15;101428.30;105719;1260;67727;-70
2023/02/10 03:25:11;;;;;;;37.50;20.20;;;;;;;-4.70;59.74;101428.11;105653;1256;73242;-70
2023/02/10 03:27:42;;;;;;;30.00;20.20;;;;;;;-4.68;60.04;101424.95;105733;1260;61542;-69
2023/02/10 03:30:11;;;;;;;35.70;22.20;;;;;;;-4.67;59.91;101418.05;105806;1261;60041;-69
2023/02/10 03:32:39;;;;;;;35.40;20.60;;;;;;;-4.64;60.00;101415.73;105874;1256;73920;-69
2023/02/10 03:35:07;;;;;;;36.60;23.00;;;;;;;-4.63;59.88;101412.19;105900;1260;68938;-69
2023/02/10 03:37:35;;;;;;;34.00;19.50;;;;;;;-4.62;60.11;101406.88;105409;1257;70827;-70
2023/02/10 03:40:04;;;;;;;42.00;24.30;;;;;;;-4.64;60.10;101407.31;105481;1260;61096;-69
2023/02/10 03:42:32;;;;;;;32.50;20.80;;;;;;;-4.65;60.27;101404.60;105839;1257;60343;-70
2023/02/10 03:45:00;;;;;;;34.60;21.10;;;;;;;-4.64;60.34;101404.56;105120;1260;1003139;-70
2023/02/10 03:47:28;;;;;;;38.50;23.50;;;;;;;-4.63;60.33;101398.34;105782;1260;67383;-73
2023/02/10 03:49:57;;;;;;;38.40;20.30;;;;;;;-4.62;60.17;101394.81;105698;1256;73555;-70
2023/02/10 03:52:25;;;;;;;29.00;20.50;;;;;;;-4.60;59.93;101395.72;104696;1256;1003040;-68
2023/02/10 03:54:54;;;;;;;38.90;19.90;;;;;;;-4.60;59.70;101390.40;105025;1256;1003291;-69
2023/02/10 03:57:22;;;;;;;31.00;20.70;;;;;;;-4.61;59.85;101391.52;105629;1256;72879;-71
2023/02/10 03:59:50;;;;;;;38.20;20.90;;;;;;;-4.62;59.63;101388.15;105681;1256;68916;-71
2023/02/10 04:02:18;;;;;;;30.10;20.50;;;;;;;-4.66;59.43;101385.08;105352;1265;72811;-74
2023/02/10 04:04:47;;;;;;;33.30;20.30;;;;;;;-4.70;59.72;101386.05;105664;1257;60524;-71
2023/02/10 04:07:15;;;;;;;41.20;24.60;;;;;;;-4.73;59.95;101383.88;105779;1256;60458;-74
2023/02/10 04:09:43;;;;;;;44.10;22.90;;;;;;;-4.76;60.18;101387.92;105650;1256;76076;-70
2023/02/10 04:12:14;;;;;;;39.00;22.90;;;;;;;-4.79;60.08;101382.75;105795;1260;69313;-75
2023/02/10 04:14:43;;;;;;;33.70;23.20;;;;;;;-4.81;60.52;101382.87;105525;1256;72741;-72
2023/02/10 04:17:11;;;;;;;28.40;18.40;;;;;;;-4.83;60.51;101384.23;105581;1260;60468;-72
2023/02/10 04:19:40;;;;;;;33.70;21.50;;;;;;;-4.86;60.64;101386.48;105842;1256;62067;-73
2023/02/10 04:22:08;;;;;;;40.00;21.00;;;;;;;-4.88;60.76;101383.48;105831;1260;73949;-73
2023/02/10 04:24:36;;;;;;;38.40;23.50;;;;;;;-4.88;60.89;101382.81;105012;1256;1003023;-73
2023/02/10 04:27:06;;;;;;;37.40;21.20;;;;;;;-4.88;61.07;101380.67;105553;1256;72326;-73
2023/02/10 04:29:38;;;;;;;31.60;20.60;;;;;;;-4.88;61.16;101384.58;105598;1256;61220;-73
2023/02/10 04:32:07;;;;;;;;;;;;;;;-4.88;61.04;101387.70;105658;1260;61692;-74
2023/02/10 04:34:35;;;;;;;34.20;19.90;;;;;;;-4.88;61.32;101389.48;105634;1260;74455;-74
2023/02/10 04:37:03;;;;;;;38.60;21.70;;;;;;;-4.89;61.24;101386.52;105726;1260;67723;-74
2023/02/10 04:39:31;;;;;;;37.20;22.30;;;;;;;-4.89;61.42;101382.16;105536;1260;74213;-72
2023/02/10 04:42:00;;;;;;;35.10;21.60;;;;;;;-4.89;61.41;101378.35;104921;1262;1002855;-72
2023/02/10 04:44:28;;;;;;;39.10;23.80;;;;;;;-4.90;61.44;101382.98;105565;1257;61598;-73
2023/02/10 04:46:56;;;;;;;43.70;24.80;;;;;;;-4.91;61.30;101375.16;105817;1261;73436;-68
2023/02/10 04:49:25;;;;;;;45.50;24.70;;;;;;;-4.92;61.58;101372.63;105381;1256;69658;-71
2023/02/10 04:51:53;;;;;;;48.60;29.30;;;;;;;-4.95;61.56;101367.89;105535;1260;71239;-73
2023/02/10 04:54:21;;;;;;;37.50;22.40;;;;;;;-4.96;61.45;101368.72;105722;1263;60548;-73
2023/02/10 04:56:50;;;;;;;42.00;24.10;;;;;;;-4.96;61.53;101365.42;105537;1261;60992;-72
2023/02/10 04:59:18;;;;;;;37.50;23.00;;;;;;;-4.96;61.47;101362.23;105647;1257;75628;-74
2023/02/10 05:01:47;;;;;;;37.80;23.30;;;;;;;-4.90;61.63;101362.70;105750;1256;69636;-72
2023/02/10 05:04:16;;;;;;;32.20;20.20;;;;;;;-4.82;61.27;101363.55;105831;1260;74472;-72
2023/02/10 05:06:45;;;;;;;33.20;19.60;;;;;;;-4.71;60.97;101368.70;104925;1256;1003751;-73
2023/02/10 05:09:14;;;;;;;38.50;21.10;;;;;;;-4.60;60.65;101369.79;105766;1259;60882;-74
2023/02/10 05:11:43;;;;;;;29.30;19.90;;;;;;;-4.51;60.24;101362.80;105773;1259;74325;-70
2023/02/10 05:14:11;;;;;;;32.40;21.00;;;;;;;-4.41;59.98;101360.65;105807;1260;68172;-73
2023/02/10 05:16:39;;;;;;;29.90;20.20;;;;;;;-4.31;59.79;101359.59;105701;1261;72626;-72
2023/02/10 05:19:09;;;;;;;35.00;21.80;;;;;;;-4.18;59.57;101363.53;105762;1257;62815;-70
2023/02/10 05:21:38;;;;;;;29.20;21.40;;;;;;;-4.07;59.24;101366.83;105857;1260;60685;-70
2023/02/10 05:24:07;;;;;;;43.70;22.80;;;;;;;-3.97;58.87;101366.13;105882;1260;75752;-67
2023/02/10 05:26:35;;;;;;;31.70;18.80;;;;;;;-3.91;58.38;101367.05;105682;1258;69711;-70
2023/02/10 05:29:03;;;;;;;34.50;19.20;;;;;;;-3.89;58.16;101368.30;105523;1257;72204;-67
2023/02/10 05:31:32;;;;;;;31.80;20.30;;;;;;;-3.88;58.28;101368.94;105456;1260;60461;-70
2023/02/10 05:34:01;;;;;;;37.70;22.70;;;;;;;-3.87;58.18;101370.42;105350;1257;60606;-68
2023/02/10 05:36:30;;;;;;;36.80;21.00;;;;;;;-3.86;57.69;101367.94;104591;1258;1003691;-72
2023/02/10 05:41:45;;;;;;;34.50;21.40;;;;;;;-3.95;57.34;101361.09;105763;1260;72668;-70
2023/02/10 05:44:13;;;;;;;34.00;21.20;;;;;;;-4.01;57.52;101365.19;105843;1259;61403;-70
2023/02/10 05:46:41;;;;;;;36.00;19.80;;;;;;;-4.07;57.62;101369.15;105826;1260;61512;-70
2023/02/10 05:49:11;;;;;;;33.90;21.30;;;;;;;-4.12;57.75;101363.43;104948;1256;1003790;-72
2023/02/10 05:51:39;;;;;;;34.60;22.40;;;;;;;-4.17;58.06;101362.20;105483;1263;69809;-70
2023/02/10 05:54:07;;;;;;;34.30;20.90;;;;;;;-4.20;58.12;101362.81;105461;1263;72801;-72
2023/02/10 05:56:35;;;;;;;37.40;19.40;;;;;;;-4.23;58.49;101361.25;105798;1260;60890;-70
2023/02/10 05:59:04;;;;;;;31.30;20.20;;;;;;;-4.24;58.54;101360.45;105821;1256;61831;-72
2023/02/10 06:01:32;;;;;;;27.00;18.30;;;;;;;-4.25;58.69;101356.16;105493;1263;74220;-75
2023/02/10 06:04:00;;;;;;;36.60;24.50;;;;;;;-4.26;58.65;101349.77;105751;1261;67878;-70
2023/02/10 06:06:29;;;;;;;29.60;17.90;;;;;;;-4.27;58.92;101348.96;105708;1261;73146;-71
2023/02/10 06:08:57;;;;;;;37.00;19.10;;;;;;;-4.27;59.04;101344.77;105741;1255;61640;-73
2023/02/10 06:11:26;;;;;;;33.20;19.30;;;;;;;-4.26;59.06;101345.51;105614;1257;61227;-73
2023/02/10 06:13:54;;;;;;;37.40;23.60;;;;;;;-4.24;59.23;101338.95;105650;1260;75696;-71
2023/02/10 06:16:22;;;;;;;36.60;22.30;;;;;;;-4.24;59.30;101338.25;105809;1257;67185;-74
2023/02/10 06:18:54;;;;;;;36.50;22.10;;;;;;;-4.24;59.43;101334.90;105465;1262;72466;-73
2023/02/10 06:21:23;;;;;;;34.40;20.80;;;;;;;-4.23;59.63;101334.52;105472;1262;62095;-74
2023/02/10 06:23:53;;;;;;;30.70;19.80;;;;;;;-4.23;59.71;101331.70;105672;1257;62240;-73
2023/02/10 06:26:21;;;;;;;26.00;16.90;;;;;;;-4.24;59.71;101328.22;104862;1257;1002621;-74
2023/02/10 11:19:31;;;;;;;15.90;10.10;;;;;;;2.35;45.71;101057.61;102324;1301;600290;-72
2023/02/10 11:22:15;;;;;;;19.60;10.10;;;;;;;2.42;46.06;101051.20;104880;1273;59277;-70
2023/02/10 11:24:55;;;;;;;17.20;11.10;;;;;;;2.52;45.51;101047.40;104530;1270;60887;-70
2023/02/10 11:27:25;;;;;;;18.60;12.10;;;;;;;2.58;45.44;101049.86;103763;1271;1003786;-72
2023/02/10 11:29:58;;;;;;;21.50;13.60;;;;;;;2.64;45.10;101054.68;104817;1270;69559;-70
2023/02/10 11:32:32;;;;;;;18.80;12.70;;;;;;;2.68;44.84;101041.83;104297;1274;379236;-71
2023/02/10 11:35:02;;;;;;;20.70;13.50;;;;;;;2.72;44.48;101042.34;104591;1269;59581;-71
2023/02/10 11:37:38;;;;;;;18.00;12.40;;;;;;;2.75;44.67;101038.22;104687;1270;61381;-71
2023/02/10 11:40:24;;;;;;;20.60;10.90;;;;;;;2.81;44.51;101038.61;104981;1269;73181;-71
2023/02/10 11:42:57;;;;;;;17.10;11.30;;;;;;;2.90;44.27;101036.63;104695;1266;68642;-69
2023/02/10 11:45:30;;;;;;;17.00;11.80;;;;;;;2.99;44.04;101033.85;104602;1267;72162;-70
2023/02/10 11:48:18;;;;;;;17.20;11.70;;;;;;;3.09;44.02;101040.70;104995;1267;60115;-69
2023/02/10 11:50:46;;;;;;;18.40;10.90;;;;;;;3.21;43.57;101030.04;105107;1263;61487;-70
2023/02/10 11:53:24;;;;;;;13.40;10.10;;;;;;;3.29;43.50;101028.43;104221;1263;1002898;-70
2023/02/10 11:58:58;;;;;;;13.30;9.80;;;;;;;3.36;43.08;101029.90;105511;1267;68920;-69
2023/02/10 11:59:35;;;;;;;15.20;11.50;;;;;;;3.43;42.65;101027.20;105155;1267;74022;-69
2023/02/10 12:02:09;;;;;;;15.70;9.80;;;;;;;3.45;42.64;101025.27;104848;1266;61379;-68
2023/02/10 12:04:47;;;;;;;13.00;10.10;;;;;;;3.53;42.84;101017.34;104974;1268;61675;-68
2023/02/10 12:07:23;;;;;;;12.80;8.60;;;;;;;3.64;43.00;101014.35;104716;1267;72663;-68
2023/02/10 12:09:55;;;;;;;16.40;11.60;;;;;;;3.77;42.68;101018.40;105210;1260;67463;-69
2023/02/10 12:12:33;;;;;;;13.30;10.70;;;;;;;3.87;42.39;101021.07;105379;1257;72677;-67
2023/02/10 12:15:08;;;;;;;15.90;11.10;;;;;;;3.96;42.25;101015.44;104930;1262;60168;-70
2023/02/10 12:18:04;;;;;;;13.20;10.40;;;;;;;4.06;42.41;101010.41;105197;1257;59711;-72
2023/02/10 12:20:41;;;;;;;17.50;10.90;;;;;;;4.16;41.99;101007.66;105708;1260;72639;-70
2023/02/10 12:23:22;;;;;;;13.00;9.80;;;;;;;4.21;41.71;101007.11;105607;1257;66565;-72
2023/02/10 12:26:15;;;;;;;12.80;10.30;;;;;;;4.24;41.92;100995.30;105536;1257;71614;-72
2023/02/10 12:28:51;;;;;;;12.90;9.20;;;;;;;4.29;41.84;100994.06;105136;1258;59751;-79
2023/02/10 12:31:34;;;;;;;15.80;10.20;;;;;;;4.27;41.41;100989.94;105718;1260;60982;-70
2023/02/10 12:34:27;;;;;;;20.70;11.30;;;;;;;4.25;41.85;100982.64;105696;1260;74697;-70
2023/02/10 12:37:33;;;;;;;14.10;9.70;;;;;;;4.28;42.26;100989.42;105578;1257;67614;-73
2023/02/10 12:40:52;;;;;;;17.00;9.90;;;;;;;4.37;41.87;100980.13;105768;1259;73780;-72
2023/02/10 12:43:55;;;;;;;19.60;11.40;;;;;;;4.40;42.00;100972.34;105739;1256;59768;-70
2023/02/10 12:46:26;;;;;;;12.60;8.20;;;;;;;4.45;41.79;100963.12;105325;1257;61187;-68
2023/02/10 12:49:21;;;;;;;16.00;11.70;;;;;;;4.46;41.73;100962.81;105462;1259;73367;-77
2023/02/10 12:52:04;;;;;;;13.50;10.00;;;;;;;4.39;41.40;100963.42;105738;1257;67813;-73
2023/02/10 12:54:43;;;;;;;13.30;8.50;;;;;;;4.32;41.42;100964.38;105651;1256;73089;-73
2023/02/10 12:57:25;;;;;;;12.60;10.20;;;;;;;4.25;41.74;100966.96;105386;1257;60178;-73
2023/02/10 13:00:02;;;;;;;14.40;10.70;;;;;;;4.22;42.01;100961.82;105365;1257;61334;-70
2023/02/10 13:02:42;;;;;;;13.10;9.70;;;;;;;4.20;41.79;100963.84;105468;1261;72837;-72
2023/02/10 13:05:13;;;;;;;13.40;9.30;;;;;;;4.13;41.27;100958.80;105420;1260;67151;-75
2023/02/10 13:07:57;;;;;;;13.60;9.40;;;;;;;4.13;41.38;100958.79;105869;1256;73152;-72
2023/02/10 13:10:51;;;;;;;12.40;7.90;;;;;;;4.19;41.64;100946.36;105631;1260;60350;-71
2023/02/10 13:13:30;;;;;;;16.70;10.20;;;;;;;4.24;41.33;100951.29;105471;1255;60517;-71
2023/02/10 13:16:07;;;;;;;12.20;9.60;;;;;;;4.24;41.08;100957.71;105822;1260;73924;-71
2023/02/10 13:18:41;;;;;;;16.60;11.00;;;;;;;4.25;41.40;100947.97;105872;1260;67190;-72
2023/02/10 13:21:29;;;;;;;11.90;9.70;;;;;;;4.26;41.41;100939.77;105340;1260;72627;-71
2023/02/10 13:24:23;;;;;;;13.50;11.00;;;;;;;4.24;41.12;100930.56;105070;1257;1003561;-70
2023/02/10 13:26:56;;;;;;;15.30;10.40;;;;;;;4.18;41.32;100921.55;105484;1260;59526;-70
2023/02/10 13:29:47;;;;;;;20.90;9.90;;;;;;;4.14;41.48;100920.70;105439;1255;73427;-73
2023/02/10 13:32:43;;;;;;;20.70;13.60;;;;;;;4.16;41.81;100915.02;105612;1260;69245;-75
2023/02/10 13:35:15;;;;;;;23.60;13.30;;;;;;;4.16;42.85;100928.52;105760;1256;72118;-72
2023/02/10 13:37:54;;;;;;;21.30;14.90;;;;;;;4.06;43.68;100941.70;105857;1260;59643;-75
2023/02/10 13:40:27;;;;;;;19.10;14.40;;;;;;;3.98;44.34;100939.30;105899;1256;61819;-70
2023/02/10 13:43:01;;;;;;;21.50;15.90;;;;;;;3.96;44.77;100932.55;105480;1256;73845;-73
2023/02/10 13:45:31;;;;;;;22.30;16.60;;;;;;;3.96;44.75;100937.34;105841;1256;66805;-73
2023/02/10 13:48:06;;;;;;;26.50;15.60;;;;;;;3.92;44.95;100947.39;105806;1255;72264;-70
2023/02/10 13:50:52;;;;;;;24.40;16.60;;;;;;;3.89;45.05;100953.79;105812;1255;59618;-69
2023/02/10 13:53:41;;;;;;;25.60;17.70;;;;;;;3.77;45.08;100949.02;105443;1256;60382;-73
2023/02/10 13:56:19;;;;;;;23.60;17.00;;;;;;;3.64;45.44;100951.00;105879;1259;73901;-77
2023/02/10 13:58:58;;;;;;;21.40;16.10;;;;;;;3.55;45.86;100948.34;105787;1256;69261;-74
2023/02/10 14:01:47;;;;;;;29.20;19.90;;;;;;;3.43;45.97;100946.67;105854;1256;71840;-78
2023/02/10 14:04:18;;;;;;;34.60;17.90;;;;;;;3.26;46.43;100949.83;105866;1256;60351;-73
2023/02/10 14:06:51;;;;;;;22.80;15.90;;;;;;;3.16;46.73;100946.55;105821;1259;61440;-75
2023/02/10 14:09:21;;;;;;;21.30;15.60;;;;;;;3.05;47.05;100943.28;105860;1260;73955;-74
2023/02/10 14:11:53;;;;;;;25.50;16.70;;;;;;;2.97;47.36;100938.63;105687;1260;68343;-77
2023/02/10 14:14:29;;;;;;;24.20;15.90;;;;;;;2.86;47.54;100941.70;105616;1256;74468;-73
2023/02/10 14:17:16;;;;;;;37.30;18.50;;;;;;;2.78;47.98;100932.05;105608;1256;59920;-73
2023/02/10 14:19:46;;;;;;;24.10;16.80;;;;;;;2.71;48.23;100933.92;105687;1259;59761;-67
2023/02/10 14:22:27;;;;;;;23.80;16.50;;;;;;;2.66;48.47;100945.45;105388;1260;73150;-68
2023/02/10 14:24:59;;;;;;;25.30;17.20;;;;;;;2.62;48.67;100939.79;105468;1257;67071;-68
2023/02/10 14:27:27;;;;;;;23.30;16.70;;;;;;;2.59;48.91;100936.23;105502;1257;71391;-72
2023/02/10 14:30:00;;;;;;;26.30;19.00;;;;;;;2.54;49.10;100935.31;105301;1256;59634;-72
2023/02/10 14:32:29;;;;;;;22.70;15.10;;;;;;;2.50;49.29;100944.52;105521;1256;61091;-71
2023/02/10 14:35:05;;;;;;;39.40;19.10;;;;;;;2.43;49.29;100942.58;105723;1255;74004;-72
2023/02/10 14:37:55;;;;;;;32.00;18.10;;;;;;;2.34;49.72;100937.36;105150;1263;68788;-72
2023/02/10 14:40:24;;;;;;;26.70;17.70;;;;;;;2.29;50.02;100934.22;105282;1259;71401;-69
2023/02/10 14:42:53;;;;;;;24.00;18.00;;;;;;;2.24;50.34;100930.66;105284;1259;59755;-70
2023/02/10 14:45:23;;;;;;;27.20;18.50;;;;;;;2.19;50.43;100931.20;104878;1258;61431;-74
2023/02/10 14:47:56;;;;;;;28.70;17.70;;;;;;;2.14;50.63;100933.23;105585;1261;71974;-84
2023/02/10 14:50:27;;;;;;;25.30;17.60;;;;;;;2.11;50.65;100932.13;105424;1261;67123;-76
2023/02/10 14:52:56;;;;;;;27.40;17.70;;;;;;;2.07;50.73;100931.63;105409;1259;72523;-74
2023/02/10 14:55:37;;;;;;;28.70;16.50;;;;;;;2.02;50.68;100933.58;105338;1265;60449;-76
2023/02/10 14:58:10;;;;;;;25.60;17.00;;;;;;;1.97;50.49;100933.57;105482;1256;61232;-74
2023/02/10 15:00:52;;;;;;;22.80;14.20;;;;;;;1.93;50.44;100932.10;105595;1261;73364;-72
2023/02/10 15:03:21;;;;;;;31.30;17.10;;;;;;;1.85;50.11;100928.56;105617;1256;68679;-73
2023/02/10 15:05:52;;;;;;;26.10;16.90;;;;;;;1.78;50.43;100927.75;105602;1256;71717;-73
2023/02/10 15:08:32;;;;;;;27.40;16.30;;;;;;;1.74;50.62;100924.40;105856;1258;60529;-73
2023/02/10 15:11:00;;;;;;;33.20;16.70;;;;;;;1.72;50.92;100921.48;105817;1257;61225;-73
2023/02/10 15:13:37;;;;;;;27.00;17.60;;;;;;;1.69;50.88;100918.72;105806;1256;72442;-74
2023/02/10 15:16:05;;;;;;;27.50;18.10;;;;;;;1.66;50.92;100921.94;105751;1259;68541;-74
2023/02/10 15:18:41;;;;;;;25.50;18.10;;;;;;;1.59;50.77;100926.02;105668;1261;72632;-76
2023/02/10 15:21:37;;;;;;;24.00;15.80;;;;;;;1.54;50.69;100931.70;105748;1256;60107;-77
2023/02/10 15:24:17;;;;;;;26.20;17.60;;;;;;;1.47;50.97;100933.96;105772;1257;60340;-76
2023/02/10 15:26:45;;;;;;;22.80;16.80;;;;;;;1.41;51.13;100942.06;105540;1259;73942;-77
2023/02/10 15:29:15;;;;;;;22.80;16.20;;;;;;;1.37;50.93;100952.05;105561;1256;69463;-78
2023/02/10 15:31:55;;;;;;;18.60;13.80;;;;;;;1.32;51.14;100953.66;105640;1258;74522;-76
2023/02/10 15:34:32;;;;;;;23.30;15.70;;;;;;;1.27;51.26;100964.60;105604;1261;59567;-78
2023/02/10 15:37:04;;;;;;;20.10;15.30;;;;;;;1.21;51.53;100970.44;105665;1259;61033;-76
2023/02/10 15:39:36;;;;;;;20.70;15.30;;;;;;;1.17;51.88;100972.36;105825;1257;73504;-78
2023/02/10 15:42:32;;;;;;;24.30;16.90;;;;;;;1.12;51.91;100979.33;105845;1258;68886;-78
2023/02/10 15:45:02;;;;;;;21.20;16.00;;;;;;;1.09;52.23;100977.95;106061;1258;71153;-75
2023/02/10 15:47:45;;;;;;;24.50;17.60;;;;;;;1.05;52.46;100976.05;105756;1257;60558;-71
2023/02/10 15:50:13;;;;;;;23.60;17.00;;;;;;;1.00;52.56;100971.20;105777;1257;60368;-70
2023/02/10 15:52:43;;;;;;;28.00;17.20;;;;;;;0.97;52.67;100979.54;105356;1257;73689;-71
2023/02/10 15:55:19;;;;;;;24.60;16.90;;;;;;;0.94;52.98;100980.21;105404;1261;67314;-71
2023/02/10 15:57:47;;;;;;;28.80;16.70;;;;;;;0.91;53.28;100976.65;105422;1258;73559;-69
2023/02/10 16:00:20;;;;;;;22.10;16.60;;;;;;;0.85;53.44;100976.62;105844;1260;60972;-73
2023/02/10 16:02:48;;;;;;;26.50;17.10;;;;;;;0.81;53.60;100984.50;105843;1256;60406;-73
2023/02/10 16:05:17;;;;;;;25.20;17.50;;;;;;;0.77;53.82;100985.61;105733;1260;74439;-73
2023/02/10 16:07:45;;;;;;;24.70;17.20;;;;;;;0.73;53.98;100982.52;105870;1260;68214;-73
2023/02/10 16:10:16;;;;;;;23.80;16.00;;;;;;;0.69;54.25;100983.25;105738;1259;73464;-72
2023/02/10 16:12:44;;;;;;;25.10;16.10;;;;;;;0.65;54.59;100992.65;105792;1260;60569;-73
2023/02/10 16:15:16;;;;;;;29.00;18.80;;;;;;;0.61;54.75;100988.44;105838;1256;60654;-72
2023/02/10 16:17:46;;;;;;;25.70;17.00;;;;;;;0.59;54.98;100990.42;105597;1260;73470;-73
2023/02/10 16:20:25;;;;;;;22.70;17.10;;;;;;;0.55;55.24;100993.50;105494;1261;66872;-72
2023/02/10 16:22:54;;;;;;;25.10;17.50;;;;;;;0.51;55.59;100988.41;105754;1260;71339;-74
2023/02/10 16:25:23;;;;;;;25.00;17.60;;;;;;;0.48;55.60;100988.90;105652;1256;60438;-71
2023/02/10 16:27:53;;;;;;;38.50;20.70;;;;;;;0.46;55.79;100990.58;105815;1256;61182;-72